Herschel Island, Yukon

Past 24 Hour Conditions

Date / Time
(PDT)
Conditions Temp
(°F)
Humidity
(%)
Dew Point
(°F)
Wind
(mph)
Pressure
(inches)
Visibility
(miles)
02 September 2015
19:00 N/A 35 91 33 SE 10 30.2 N/A
18:00 N/A 35 92 33 SE 8 30.2 N/A
17:00 N/A 35 92 33 ESE 7 30.2 N/A
16:00 N/A 35 93 33 ESE 9 30.2 N/A
15:00 N/A 36 90 33 ESE 8 30.2 N/A
14:00 N/A 36 87 33 ESE 7 30.2 N/A
13:00 N/A 38 85 33 E 6 30.2 N/A
12:00 N/A 40   81 35 NE 4 30.2 N/A
11:00 N/A 38 81 33 N 5 30.2 N/A
10:00 N/A 37 85 33 NNW 8 30.2 N/A
9:00 N/A 35 88 32 NNW 11 30.2 N/A
8:00 N/A 34 90 31 NNW 11 gust 17 30.2 N/A
7:00 N/A 34 90 31 NW 17 gust 22 30.2 N/A
6:00 N/A 33   93 32 NW 13 gust 24 30.2 N/A
5:00 N/A 33   95 32 NW 21 30.2 N/A
4:00 N/A 34 93 32 NNW 22 30.2 N/A
3:00 N/A 35 91 33 NW 20 30.2 N/A
2:00 N/A 36 89 33 NNW 14 gust 21 30.2 N/A
1:00 N/A 36 88 32 NW 20 30.2 N/A
00:00 N/A 36 87 33 NNW 18 gust 25 30.2 N/A
01 September 2015
23:00 N/A 36 88 33 NW 20 gust 25 30.1 N/A
22:00 N/A 36 88 33 NW 23 gust 29 30.1 N/A
21:00 N/A 36 87 33 NW 24 gust 32 30.1 N/A
20:00 N/A 37 86 33 NW 29 30.1 N/A
19:00 N/A 37 85 33 NW 29 gust 35 30.1 N/A
N/A Not available
↑ Highest temperature
↓ Lowest temperature

If you require additional historical weather information, please visit Climate Data Online.

What we are doing

Date modified: